createdAt,value
2019-01-14T00:01:27.733Z,-1.50
2019-01-14T00:03:56.436Z,-1.50
2019-01-14T00:06:25.159Z,-1.40
2019-01-14T00:08:53.822Z,-1.40
2019-01-14T00:11:22.493Z,-1.40
2019-01-14T00:13:51.174Z,-1.40
2019-01-14T00:16:19.812Z,-1.40
2019-01-14T00:18:48.469Z,-1.40
2019-01-14T00:21:17.172Z,-1.40
2019-01-14T00:23:45.794Z,-1.40
2019-01-14T00:26:14.484Z,-1.40
2019-01-14T00:28:43.213Z,-1.40
2019-01-14T00:31:11.883Z,-1.40
2019-01-14T00:33:41.404Z,-1.40
2019-01-14T00:36:17.258Z,-1.40
2019-01-14T00:38:40.380Z,-1.40
2019-01-14T00:41:09.079Z,-1.40
2019-01-14T00:43:37.716Z,-1.40
2019-01-14T00:46:06.372Z,-1.40
2019-01-14T00:48:35.034Z,-1.40
2019-01-14T00:51:03.722Z,-1.40
2019-01-14T00:53:33.928Z,-1.40
2019-01-14T00:56:02.626Z,-1.40
2019-01-14T00:58:31.372Z,-1.40
2019-01-14T01:01:00.025Z,-1.40
2019-01-14T01:03:28.720Z,-1.40
2019-01-14T01:05:57.376Z,-1.30
2019-01-14T01:08:26.012Z,-1.40
2019-01-14T01:10:54.673Z,-1.30
2019-01-14T01:13:23.388Z,-1.30
2019-01-14T01:15:52.045Z,-1.30
2019-01-14T01:18:20.794Z,-1.30
2019-01-14T01:20:49.678Z,-1.30
2019-01-14T01:23:19.663Z,-1.30
2019-01-14T01:25:49.200Z,-1.30
2019-01-14T01:28:17.856Z,-1.30
2019-01-14T01:30:56.837Z,-1.20
2019-01-14T01:33:25.518Z,-1.20
2019-01-14T01:35:54.293Z,-1.20
2019-01-14T01:38:22.917Z,-1.20
2019-01-14T01:40:51.565Z,-1.20
2019-01-14T01:43:20.319Z,-1.20
2019-01-14T01:45:48.971Z,-1.30
2019-01-14T01:48:17.675Z,-1.30
2019-01-14T01:50:46.357Z,-1.30
2019-01-14T01:53:15.000Z,-1.30
2019-01-14T01:55:43.689Z,-1.30
2019-01-14T01:58:12.344Z,-1.30
2019-01-14T02:00:41.388Z,-1.30
2019-01-14T02:03:10.037Z,-1.30
2019-01-14T02:05:38.704Z,-1.30
2019-01-14T02:08:07.399Z,-1.40
2019-01-14T02:10:36.077Z,-1.40
2019-01-14T02:13:04.746Z,-1.40
2019-01-14T02:15:33.391Z,-1.40
2019-01-14T02:18:02.241Z,-1.40
2019-01-14T02:20:30.898Z,-1.40
2019-01-14T02:23:02.570Z,-1.40
2019-01-14T02:25:31.239Z,-1.40
2019-01-14T02:27:59.876Z,-1.40
2019-01-14T02:30:28.573Z,-1.40
2019-01-14T02:32:57.219Z,-1.40
2019-01-14T02:35:25.887Z,-1.50
2019-01-14T02:37:54.588Z,-1.50
2019-01-14T02:40:23.197Z,-1.50
2019-01-14T02:42:51.865Z,-1.60
2019-01-14T02:45:20.509Z,-1.50
2019-01-14T02:47:54.179Z,-1.60
2019-01-14T02:50:24.431Z,-1.60
2019-01-14T02:52:53.094Z,-1.60
2019-01-14T02:55:21.795Z,-1.60
2019-01-14T02:57:50.460Z,-1.60
2019-01-14T03:00:24.080Z,-1.60
2019-01-14T03:02:52.755Z,-1.60
2019-01-14T03:05:21.453Z,-1.50
2019-01-14T03:07:51.047Z,-1.50
2019-01-14T03:10:19.691Z,-1.60
2019-01-14T03:12:48.343Z,-1.60
2019-01-14T03:15:17.932Z,-1.60
2019-01-14T03:17:46.671Z,-1.50
2019-01-14T03:20:16.542Z,-1.50
2019-01-14T03:22:45.172Z,-1.50
2019-01-14T03:25:14.214Z,-1.50
2019-01-14T03:27:42.864Z,-1.40
2019-01-14T03:30:15.196Z,-1.40
2019-01-14T03:32:43.832Z,-1.40
2019-01-14T03:35:12.459Z,-1.40
2019-01-14T03:37:41.127Z,-1.40
2019-01-14T03:40:14.391Z,-1.40
2019-01-14T03:42:43.017Z,-1.30
2019-01-14T03:45:12.467Z,-1.40
2019-01-14T03:47:41.119Z,-1.40
2019-01-14T03:50:12.832Z,-1.40
2019-01-14T03:52:41.472Z,-1.30
2019-01-14T03:55:10.167Z,-1.30
2019-01-14T03:57:38.830Z,-1.30
2019-01-14T04:00:13.337Z,-1.30
2019-01-14T04:02:41.964Z,-1.30
2019-01-14T04:05:10.931Z,-1.30
2019-01-14T04:07:39.598Z,-1.30
2019-01-14T04:10:15.888Z,-1.30
2019-01-14T04:12:44.544Z,-1.30
2019-01-14T04:15:15.450Z,-1.30
2019-01-14T04:17:44.625Z,-1.30
2019-01-14T04:20:16.412Z,-1.30
2019-01-14T04:22:45.078Z,-1.30
2019-01-14T04:25:13.682Z,-1.30
2019-01-14T04:27:42.293Z,-1.30
2019-01-14T04:30:19.487Z,-1.30
2019-01-14T04:32:48.144Z,-1.40
2019-01-14T04:35:17.028Z,-1.30
2019-01-14T04:37:45.677Z,-1.30
2019-01-14T04:40:17.248Z,-1.30
2019-01-14T04:42:45.643Z,-1.40
2019-01-14T04:45:17.314Z,-1.30
2019-01-14T04:47:47.319Z,-1.30
2019-01-14T04:50:17.888Z,-1.30
2019-01-14T04:52:46.589Z,-1.30
2019-01-14T04:55:15.290Z,-1.30
2019-01-14T04:57:43.956Z,-1.30
2019-01-14T05:00:18.151Z,-1.30
2019-01-14T05:02:46.827Z,-1.30
2019-01-14T05:05:15.664Z,-1.30
2019-01-14T05:07:44.314Z,-1.30
2019-01-14T05:10:16.109Z,-1.30
2019-01-14T05:12:44.756Z,-1.30
2019-01-14T05:15:13.489Z,-1.30
2019-01-14T05:17:42.188Z,-1.30
2019-01-14T05:20:22.304Z,-1.30
2019-01-14T05:22:51.836Z,-1.30
2019-01-14T05:25:20.530Z,-1.30
2019-01-14T05:27:49.233Z,-1.30
2019-01-14T05:30:19.379Z,-1.30
2019-01-14T05:32:49.171Z,-1.30
2019-01-14T05:35:17.820Z,-1.30
2019-01-14T05:37:48.892Z,-1.30
2019-01-14T05:40:23.840Z,-1.30
2019-01-14T05:42:54.210Z,-1.30
2019-01-14T05:45:22.871Z,-1.30
2019-01-14T05:47:51.520Z,-1.30
2019-01-14T05:50:20.188Z,-1.30
2019-01-14T05:53:03.122Z,-1.30
2019-01-14T05:55:37.674Z,-1.30
2019-01-14T05:58:06.346Z,-1.30
2019-01-14T06:00:40.382Z,-1.20
2019-01-14T06:03:09.023Z,-1.20
2019-01-14T06:05:37.776Z,-1.20
2019-01-14T06:08:06.439Z,-1.20
2019-01-14T06:10:35.097Z,-1.20
2019-01-14T06:13:03.738Z,-1.10
2019-01-14T06:15:32.473Z,-1.10
2019-01-14T06:18:01.165Z,-1.10
2019-01-14T06:20:30.961Z,-1.10
2019-01-14T06:22:59.603Z,-1.10
2019-01-14T06:25:28.426Z,-1.00
2019-01-14T06:27:58.148Z,-1.00
2019-01-14T06:30:32.266Z,-0.90
2019-01-14T06:33:01.120Z,-0.90
2019-01-14T06:35:29.756Z,-0.90
2019-01-14T06:37:58.447Z,-0.90
2019-01-14T06:40:27.280Z,-0.90
2019-01-14T06:42:55.931Z,-0.80
2019-01-14T06:45:33.187Z,-0.60
2019-01-14T06:48:00.756Z,-0.70
2019-01-14T06:50:29.415Z,-0.70
2019-01-14T06:52:58.128Z,-0.70
2019-01-14T06:55:26.832Z,-0.50
2019-01-14T06:57:57.892Z,-0.50
2019-01-14T07:00:26.673Z,-0.50
2019-01-14T07:02:55.416Z,-0.50
2019-01-14T07:05:24.061Z,-0.50
2019-01-14T07:08:17.125Z,-0.50
2019-01-14T07:10:26.450Z,-0.50
2019-01-14T07:12:55.123Z,-0.50
2019-01-14T07:15:24.029Z,-0.50
2019-01-14T07:17:55.788Z,-0.40
2019-01-14T07:20:24.451Z,-0.50
2019-01-14T07:22:54.723Z,-0.50
2019-01-14T07:25:23.419Z,-0.40
2019-01-14T07:27:55.087Z,-0.30
2019-01-14T07:30:23.811Z,-0.30
2019-01-14T07:32:57.063Z,-0.30
2019-01-14T07:35:28.616Z,-0.40
2019-01-14T07:37:57.235Z,-0.40
2019-01-14T07:40:25.964Z,-0.40
2019-01-14T07:42:54.594Z,-0.30
2019-01-14T07:45:24.278Z,-0.30
2019-01-14T07:47:53.016Z,-0.30
2019-01-14T07:50:21.901Z,-0.30
2019-01-14T07:52:53.604Z,-0.30
2019-01-14T07:55:26.722Z,-0.30
2019-01-14T07:58:00.391Z,-0.30
2019-01-14T08:00:29.092Z,-0.20
2019-01-14T08:03:04.599Z,-0.20
2019-01-14T08:05:33.262Z,-0.20
2019-01-14T08:08:01.944Z,-0.10
2019-01-14T08:10:30.713Z,-0.10
2019-01-14T08:12:59.398Z,-0.10
2019-01-14T08:15:28.082Z,-0.10
2019-01-14T08:17:58.549Z,0.00
2019-01-14T08:20:28.533Z,0.10
2019-01-14T08:22:57.211Z,0.20
2019-01-14T08:25:25.926Z,0.10
2019-01-14T08:27:54.580Z,0.20
2019-01-14T08:30:23.270Z,0.20
2019-01-14T08:32:52.044Z,0.20
2019-01-14T08:35:20.753Z,0.20
2019-01-14T08:37:49.408Z,0.30
2019-01-14T08:40:24.251Z,0.40
2019-01-14T08:42:53.046Z,0.40
2019-01-14T08:45:21.746Z,0.30
2019-01-14T08:47:50.441Z,0.40
2019-01-14T08:50:19.780Z,0.30
2019-01-14T08:52:48.490Z,0.50
2019-01-14T08:55:17.135Z,0.30
2019-01-14T08:57:54.475Z,0.40
2019-01-14T09:00:20.080Z,0.40
2019-01-14T09:02:52.942Z,0.40
2019-01-14T09:05:21.660Z,0.40
2019-01-14T09:07:50.294Z,0.50
2019-01-14T09:10:21.746Z,0.60
2019-01-14T09:12:50.524Z,0.70
2019-01-14T09:15:19.289Z,0.90
2019-01-14T09:17:48.045Z,0.90
2019-01-14T09:20:19.179Z,0.90
2019-01-14T09:22:48.930Z,0.90
2019-01-14T09:25:17.744Z,0.80
2019-01-14T09:27:52.270Z,1.10
2019-01-14T09:30:24.266Z,0.80
2019-01-14T09:32:54.585Z,1.20
2019-01-14T09:35:23.344Z,1.50
2019-01-14T09:37:52.147Z,1.20
2019-01-14T09:40:22.458Z,1.40
2019-01-14T09:42:52.738Z,1.20
2019-01-14T09:45:30.366Z,1.20
2019-01-14T09:47:59.074Z,1.30
2019-01-14T09:50:29.309Z,1.40
2019-01-14T09:52:59.600Z,1.20
2019-01-14T09:55:28.256Z,1.00
2019-01-14T09:57:56.955Z,1.00
2019-01-14T10:00:27.249Z,1.10
2019-01-14T10:02:56.874Z,1.00
2019-01-14T10:05:25.543Z,1.10
2019-01-14T10:07:54.211Z,1.10
2019-01-14T10:10:22.921Z,1.20
2019-01-14T10:12:53.923Z,1.20
2019-01-14T10:15:23.738Z,1.30
2019-01-14T10:17:58.094Z,1.40
2019-01-14T10:20:32.593Z,1.50
2019-01-14T10:23:01.257Z,1.50
2019-01-14T10:25:30.136Z,1.60
2019-01-14T10:27:58.903Z,1.60
2019-01-14T10:30:27.602Z,1.60
2019-01-14T10:32:57.382Z,1.60
2019-01-14T10:35:28.500Z,1.60
2019-01-14T10:38:00.142Z,1.60
2019-01-14T10:40:28.841Z,1.70
2019-01-14T10:42:57.624Z,1.80
2019-01-14T10:45:26.314Z,1.80
2019-01-14T10:47:56.601Z,1.80
2019-01-14T10:50:28.007Z,1.90
2019-01-14T10:52:57.000Z,2.00
2019-01-14T10:55:25.732Z,2.00
2019-01-14T10:57:55.808Z,2.00
2019-01-14T11:00:27.914Z,1.90
2019-01-14T11:02:56.759Z,2.00
2019-01-14T11:05:27.699Z,2.00
2019-01-14T11:08:10.589Z,2.10
2019-01-14T11:10:43.042Z,2.00
2019-01-14T11:16:12.318Z,2.00
2019-01-14T11:18:47.036Z,1.90
2019-01-14T11:21:15.689Z,1.90
2019-01-14T11:23:44.487Z,1.90
2019-01-14T11:26:13.466Z,2.00
2019-01-14T11:28:42.131Z,2.00
2019-01-14T11:31:10.787Z,2.20
2019-01-14T11:33:40.036Z,2.20
2019-01-14T11:36:08.701Z,2.10
2019-01-14T11:38:46.255Z,2.10
2019-01-14T11:41:15.105Z,2.10
2019-01-14T11:43:43.777Z,2.00
2019-01-14T11:46:12.473Z,1.90
2019-01-14T11:48:41.191Z,2.00
2019-01-14T11:51:09.869Z,1.90
2019-01-14T11:53:38.593Z,2.00
2019-01-14T11:56:07.241Z,2.00
2019-01-14T11:58:35.873Z,2.00
2019-01-14T12:01:04.495Z,2.10
2019-01-14T12:03:33.189Z,2.20
2019-01-14T12:06:01.857Z,2.20
2019-01-14T12:08:30.547Z,2.10
2019-01-14T12:10:59.217Z,2.10
2019-01-14T12:13:27.880Z,2.20
2019-01-14T12:15:56.579Z,2.20
2019-01-14T12:18:25.195Z,2.20
2019-01-14T12:20:53.848Z,2.20
2019-01-14T12:23:22.539Z,2.30
2019-01-14T12:25:51.206Z,2.30
2019-01-14T12:28:19.848Z,2.20
2019-01-14T12:30:48.531Z,2.20
2019-01-14T12:33:17.214Z,2.20
2019-01-14T12:35:45.836Z,2.20
2019-01-14T12:38:14.507Z,2.30
2019-01-14T12:40:43.156Z,2.30
2019-01-14T12:43:11.829Z,2.20
2019-01-14T12:45:40.502Z,2.20
2019-01-14T12:48:09.184Z,2.20
2019-01-14T12:50:39.409Z,2.10
2019-01-14T12:53:08.081Z,2.10
2019-01-14T12:55:36.737Z,2.20
2019-01-14T12:58:05.414Z,2.20
2019-01-14T13:00:34.055Z,2.30
2019-01-14T13:03:02.815Z,2.30
2019-01-14T13:05:31.721Z,2.30
2019-01-14T13:08:00.384Z,2.30
2019-01-14T13:10:29.038Z,2.20
2019-01-14T13:12:57.682Z,2.20
2019-01-14T13:15:27.116Z,2.20
2019-01-14T13:17:55.848Z,2.20
2019-01-14T13:20:24.464Z,2.20
2019-01-14T13:22:53.119Z,2.20
2019-01-14T13:25:24.816Z,2.20
2019-01-14T13:27:53.505Z,2.10
2019-01-14T13:30:26.837Z,2.10
2019-01-14T13:32:56.564Z,2.10
2019-01-14T13:35:25.236Z,2.10
2019-01-14T13:37:53.921Z,2.10
2019-01-14T13:40:22.557Z,2.10
2019-01-14T13:42:51.215Z,2.10
2019-01-14T13:45:21.510Z,2.20
2019-01-14T13:47:50.119Z,2.20
2019-01-14T13:50:20.673Z,2.20
2019-01-14T13:52:49.276Z,2.20
2019-01-14T13:55:17.940Z,2.20
2019-01-14T13:57:46.600Z,2.30
2019-01-14T14:00:18.130Z,2.20
2019-01-14T14:02:46.782Z,2.30
2019-01-14T14:05:15.423Z,2.20
2019-01-14T14:07:44.142Z,2.20
2019-01-14T14:10:15.661Z,2.20
2019-01-14T14:12:45.589Z,2.20
2019-01-14T14:15:16.035Z,2.20
2019-01-14T14:17:44.708Z,2.20
2019-01-14T14:20:15.964Z,2.20
2019-01-14T14:22:44.637Z,2.10
2019-01-14T14:25:14.989Z,2.20
2019-01-14T14:27:43.642Z,2.10
2019-01-14T14:30:23.568Z,2.10
2019-01-14T14:32:52.241Z,2.20
2019-01-14T14:35:20.878Z,2.10
2019-01-14T14:37:49.542Z,2.10
2019-01-14T14:40:18.218Z,2.10
2019-01-14T14:42:46.900Z,2.10
2019-01-14T14:45:16.117Z,2.10
2019-01-14T14:47:44.736Z,2.00
2019-01-14T14:50:18.251Z,2.00
2019-01-14T14:52:50.246Z,2.10
2019-01-14T14:55:21.890Z,2.10
2019-01-14T14:57:50.536Z,2.10
2019-01-14T15:00:21.612Z,2.10
2019-01-14T15:02:50.192Z,2.10
2019-01-14T15:05:18.840Z,2.10
2019-01-14T15:07:49.108Z,2.10
2019-01-14T15:10:19.510Z,2.10
2019-01-14T15:12:48.161Z,2.10
2019-01-14T15:15:18.417Z,2.00
2019-01-14T15:17:47.087Z,2.00
2019-01-14T15:20:18.437Z,2.00
2019-01-14T15:22:47.152Z,2.00
2019-01-14T15:25:15.833Z,2.00
2019-01-14T15:27:44.487Z,2.00
2019-01-14T15:30:23.341Z,2.00
2019-01-14T15:32:52.056Z,2.00
2019-01-14T15:35:24.823Z,2.10
2019-01-14T15:37:53.485Z,2.10
2019-01-14T15:40:22.160Z,2.20
2019-01-14T15:42:51.720Z,2.20
2019-01-14T15:45:23.725Z,2.20
2019-01-14T15:47:53.932Z,2.20
2019-01-14T15:50:22.567Z,2.20
2019-01-14T15:52:51.373Z,2.30
2019-01-14T15:55:24.551Z,2.40
2019-01-14T15:58:04.934Z,2.40
2019-01-14T16:00:33.690Z,2.40
2019-01-14T16:03:02.346Z,2.40
2019-01-14T16:05:32.593Z,2.40
2019-01-14T16:08:01.260Z,2.40
2019-01-14T16:10:29.902Z,2.50
2019-01-14T16:12:58.606Z,2.50
2019-01-14T16:15:27.304Z,2.50
2019-01-14T16:17:56.096Z,2.50
2019-01-14T16:20:26.143Z,2.50
2019-01-14T16:23:00.464Z,2.50
2019-01-14T16:25:29.266Z,2.50
2019-01-14T16:27:57.960Z,2.50
2019-01-14T16:30:26.652Z,2.50
2019-01-14T16:32:57.442Z,2.50
2019-01-14T16:35:25.733Z,2.50
2019-01-14T16:37:55.958Z,2.50
2019-01-14T16:40:24.646Z,2.50
2019-01-14T16:42:53.340Z,2.60
2019-01-14T16:45:22.690Z,2.60
2019-01-14T16:47:51.365Z,2.60
2019-01-14T16:50:20.092Z,2.60
2019-01-14T16:52:48.788Z,2.60
2019-01-14T16:55:22.531Z,2.50
2019-01-14T16:57:49.418Z,2.50
2019-01-14T17:00:18.821Z,2.50
2019-01-14T17:02:47.504Z,2.50
2019-01-14T17:05:16.729Z,2.50
2019-01-14T17:07:50.973Z,2.50
2019-01-14T17:10:25.165Z,2.40
2019-01-14T17:12:51.593Z,2.40
2019-01-14T17:15:20.256Z,2.40
2019-01-14T17:17:49.137Z,2.40
2019-01-14T17:20:18.985Z,2.40
2019-01-14T17:22:47.669Z,2.40
2019-01-14T17:25:16.441Z,2.40
2019-01-14T17:27:46.207Z,2.40
2019-01-14T17:33:23.562Z,2.30
2019-01-14T17:35:52.231Z,2.40
2019-01-14T17:38:48.291Z,2.40
2019-01-14T17:41:13.464Z,2.40
2019-01-14T17:43:49.557Z,2.30
2019-01-14T18:02:49.260Z,2.40
2019-01-14T18:05:20.693Z,2.30
2019-01-14T18:08:21.398Z,2.30
2019-01-14T18:11:09.065Z,2.20
2019-01-14T18:13:40.369Z,2.20
2019-01-14T18:16:09.323Z,2.20
2019-01-14T18:18:40.750Z,2.30
2019-01-14T18:21:13.770Z,2.30
2019-01-14T18:23:41.817Z,2.30
2019-01-14T18:26:12.173Z,2.40
2019-01-14T18:28:40.881Z,2.40
2019-01-14T18:31:09.547Z,2.40
2019-01-14T18:33:38.208Z,2.40
2019-01-14T18:36:06.866Z,2.40
2019-01-14T18:38:35.585Z,2.40
2019-01-14T18:41:04.295Z,2.40
2019-01-14T18:43:33.121Z,2.40
2019-01-14T18:46:01.841Z,2.40
2019-01-14T18:48:30.549Z,2.50
2019-01-14T18:54:28.176Z,2.40
2019-01-14T18:56:56.921Z,2.40
2019-01-14T18:59:26.712Z,2.40
2019-01-14T19:01:55.558Z,2.50
2019-01-14T19:04:27.573Z,2.50
2019-01-14T19:09:56.889Z,2.40
2019-01-14T19:22:03.729Z,2.50
2019-01-14T19:25:14.815Z,2.50
2019-01-14T19:44:41.804Z,2.50
2019-01-14T19:47:16.164Z,2.50
2019-01-14T19:49:44.909Z,2.50
2019-01-14T19:52:13.574Z,2.50
2019-01-14T19:54:44.982Z,2.50
2019-01-14T19:57:19.617Z,2.60
2019-01-14T19:59:43.924Z,2.60
2019-01-14T20:02:12.650Z,2.50
2019-01-14T20:04:42.001Z,2.50
2019-01-14T20:07:12.270Z,2.60
2019-01-14T20:09:41.016Z,2.50
2019-01-14T20:12:09.764Z,2.50
2019-01-14T20:14:40.024Z,2.50
2019-01-14T20:17:08.678Z,2.50
2019-01-14T20:19:37.309Z,2.60
2019-01-14T20:22:08.688Z,2.50
2019-01-14T20:25:09.779Z,2.60
2019-01-14T20:30:37.825Z,2.60
2019-01-14T20:36:39.921Z,2.60
2019-01-14T20:39:22.767Z,2.60
2019-01-14T20:45:08.248Z,2.70
2019-01-14T20:47:36.965Z,2.70
2019-01-14T20:50:08.282Z,2.80
2019-01-14T20:52:36.931Z,2.80
2019-01-14T20:55:06.455Z,2.80
2019-01-14T20:57:35.113Z,2.80
2019-01-14T21:00:08.610Z,2.80
2019-01-14T21:02:37.204Z,2.80
2019-01-14T21:05:07.901Z,2.70
2019-01-14T21:07:36.623Z,2.80
2019-01-14T21:10:08.301Z,2.80
2019-01-14T21:12:39.428Z,2.80
2019-01-14T21:15:10.819Z,2.70
2019-01-14T21:17:39.564Z,2.80
2019-01-14T21:20:11.466Z,3.00
2019-01-14T21:22:40.103Z,3.40
2019-01-14T21:25:08.716Z,3.60
2019-01-14T21:27:37.382Z,3.20
2019-01-14T21:30:11.352Z,2.90
2019-01-14T21:32:39.699Z,2.70
2019-01-14T21:35:08.379Z,2.70
2019-01-14T21:37:37.134Z,2.70
2019-01-14T21:40:08.583Z,2.70
2019-01-14T21:42:37.348Z,2.70
2019-01-14T21:45:11.722Z,2.70
2019-01-14T21:47:40.419Z,2.70
2019-01-14T21:50:16.948Z,2.60
2019-01-14T21:52:45.661Z,2.60
2019-01-14T21:55:19.190Z,2.50
2019-01-14T21:57:47.892Z,2.50
2019-01-14T22:00:24.521Z,2.50
2019-01-14T22:02:53.244Z,2.50
2019-01-14T22:05:21.884Z,2.50
2019-01-14T22:07:50.754Z,2.50
2019-01-14T22:10:23.923Z,2.50
2019-01-14T22:12:52.654Z,2.50
2019-01-14T22:15:21.299Z,2.40
2019-01-14T22:17:49.950Z,2.40
2019-01-14T22:20:26.122Z,2.40
2019-01-14T22:22:54.833Z,2.40
2019-01-14T22:25:23.480Z,2.30
2019-01-14T22:27:52.225Z,2.30
2019-01-14T22:30:28.884Z,2.20
2019-01-14T22:32:57.560Z,2.20
2019-01-14T22:35:26.240Z,2.20
2019-01-14T22:37:55.804Z,2.20
2019-01-14T22:40:24.469Z,2.30
2019-01-14T22:42:53.148Z,2.20
2019-01-14T22:45:21.812Z,2.20
2019-01-14T22:47:50.467Z,2.20
2019-01-14T22:50:19.391Z,2.30
2019-01-14T22:52:48.072Z,2.20
2019-01-14T22:55:16.725Z,2.30
2019-01-14T22:57:45.544Z,2.30
2019-01-14T23:00:55.650Z,2.30
2019-01-14T23:03:24.331Z,2.30
2019-01-14T23:05:53.029Z,2.30
2019-01-14T23:08:21.733Z,2.30
2019-01-14T23:10:50.990Z,2.30
2019-01-14T23:13:19.645Z,2.40
2019-01-14T23:15:48.298Z,2.30
2019-01-14T23:18:17.037Z,2.40
2019-01-14T23:20:45.676Z,2.40
2019-01-14T23:23:14.382Z,2.40
2019-01-14T23:25:43.038Z,2.40
2019-01-14T23:28:11.689Z,2.40
2019-01-14T23:30:41.947Z,2.40
2019-01-14T23:33:10.596Z,2.50
2019-01-14T23:35:39.231Z,2.40
2019-01-14T23:38:07.879Z,2.50
2019-01-14T23:40:36.523Z,2.40
2019-01-14T23:43:05.242Z,2.50
2019-01-14T23:45:33.884Z,2.50
2019-01-14T23:48:02.515Z,2.50
2019-01-14T23:50:31.191Z,2.50
2019-01-14T23:52:59.842Z,2.50
2019-01-14T23:55:30.107Z,2.50
2019-01-14T23:57:58.727Z,2.50
